Terminal Aerodrome Forecast
Issued by NWS Detroit/Pontiac, MI

Home | Current Version | Previous Version | Text Only | Print | Product List | Glossary On
Versions: 1 2 3 4 5 6 7 8 9 10 11 12 13 14 15 16 17 18 19 20 21 22 23 24 25 26
000
FTUS43 KDTX 200800 AAB
TAFDTW
TAF AMD
KDTW 200857Z 2009/2112 20005KT P6SM SCT250
     FM201100 21009KT P6SM SCT150 BKN250
     FM201500 22013G22KT P6SM SCT040 BKN120 OVC250
     FM202300 24012KT 4SM SHRA BKN035 BKN100
     FM210300 24008KT P6SM BKN030 OVC050
     FM210800 22005KT 4SM -SHRA BR BKN012 OVC030=

USA.gov is the U.S. government's official web portal to all federal, state and local government web resources and services.